Time;durP1;ratioP1;P1;durP2;ratioP2;P2;SDS_P1;SDS_P2;PMS_P1;PMS_P2;Temp;Humidity;BMP_temperature;BMP_pressure;BME280_temperature;BME280_humidity;BME280_pressure;Samples;Min_cycle;Max_cycle;Signal;HPM_P1;HPM_P2
2023/06/12 00:01:05;;;;;;;15.02;9.80;;;;;;;;;;5018859;28;20041;-58
2023/06/12 00:03:31;;;;;;;13.52;9.65;;;;;;;;;;5020436;28;20038;-58
2023/06/12 00:05:59;;;;;;;16.65;9.50;;;;;;;;;;5020792;28;20057;-58
2023/06/12 00:08:30;;;;;;;16.25;9.60;;;;;;;;;;5018952;28;20037;-58
2023/06/12 00:10:57;;;;;;;13.90;9.45;;;;;;;;;;5012120;28;20038;-58
2023/06/12 00:13:24;;;;;;;15.68;9.65;;;;;;;;;;5014080;28;20038;-58
2023/06/12 00:15:51;;;;;;;15.10;9.07;;;;;;;;;;5022936;28;20041;-58
2023/06/12 00:18:17;;;;;;;13.38;9.75;;;;;;;;;;5022839;28;20033;-58
2023/06/12 00:20:43;;;;;;;14.60;9.20;;;;;;;;;;5019188;28;20054;-58
2023/06/12 00:23:13;;;;;;;19.52;10.10;;;;;;;;;;5020271;28;20492;-58
2023/06/12 00:25:39;;;;;;;17.17;9.82;;;;;;;;;;5022962;28;20343;-59
2023/06/12 00:28:06;;;;;;;13.50;9.75;;;;;;;;;;5007693;28;20050;-59
2023/06/12 00:30:38;;;;;;;15.88;9.30;;;;;;;;;;5015856;28;20048;-59
2023/06/12 00:33:07;;;;;;;15.32;9.90;;;;;;;;;;5021011;28;20041;-58
2023/06/12 00:35:33;;;;;;;18.35;9.80;;;;;;;;;;5023083;28;20040;-58
2023/06/12 00:38:00;;;;;;;15.13;10.10;;;;;;;;;;5022650;28;20071;-59
2023/06/12 00:40:26;;;;;;;15.88;9.70;;;;;;;;;;5017126;28;20457;-59
2023/06/12 00:42:53;;;;;;;13.80;9.77;;;;;;;;;;5015571;28;20061;-59
2023/06/12 00:45:23;;;;;;;16.55;10.02;;;;;;;;;;5010320;28;20373;-58
2023/06/12 00:47:55;;;;;;;16.42;10.32;;;;;;;;;;5016926;28;20068;-59
2023/06/12 00:50:28;;;;;;;13.43;10.05;;;;;;;;;;5016591;28;20034;-59
2023/06/12 00:52:59;;;;;;;17.95;9.95;;;;;;;;;;5021335;28;20062;-58
2023/06/12 00:55:28;;;;;;;14.95;9.93;;;;;;;;;;5022815;28;20160;-59
2023/06/12 00:57:55;;;;;;;17.50;10.25;;;;;;;;;;5020023;28;20056;-59
2023/06/12 01:00:21;;;;;;;14.40;9.43;;;;;;;;;;5050375;28;20041;-58
2023/06/12 01:02:51;;;;;;;12.65;9.63;;;;;;;;;;5019846;28;20045;-59
2023/06/12 01:05:22;;;;;;;12.88;9.05;;;;;;;;;;5023002;28;20041;-58
2023/06/12 01:08:18;;;;;;;14.80;9.60;;;;;;;;;;5017701;28;20049;-58
2023/06/12 01:11:00;;;;;;;14.05;9.45;;;;;;;;;;5010555;28;20044;-59
2023/06/12 01:13:26;;;;;;;15.02;9.57;;;;;;;;;;5011327;28;20049;-59
2023/06/12 01:15:52;;;;;;;13.77;10.13;;;;;;;;;;5016258;28;20045;-59
2023/06/12 01:18:21;;;;;;;15.13;9.63;;;;;;;;;;5019759;28;20060;-58
2023/06/12 01:20:48;;;;;;;13.82;9.48;;;;;;;;;;5021082;28;20081;-59
2023/06/12 01:23:38;;;;;;;12.68;9.30;;;;;;;;;;5016973;28;20040;-58
2023/06/12 01:26:42;;;;;;;17.20;9.65;;;;;;;;;;5016418;28;20057;-58
2023/06/12 01:29:26;;;;;;;17.40;10.52;;;;;;;;;;5015608;28;20038;-58
2023/06/12 01:32:05;;;;;;;14.10;9.60;;;;;;;;;;5014390;28;20049;-58
2023/06/12 01:34:57;;;;;;;15.25;9.98;;;;;;;;;;5012438;28;20053;-57
2023/06/12 01:37:49;;;;;;;14.88;10.20;;;;;;;;;;5018835;28;20038;-59
2023/06/12 01:40:25;;;;;;;19.23;10.75;;;;;;;;;;5011464;28;20038;-58
2023/06/12 01:42:53;;;;;;;15.15;10.10;;;;;;;;;;5016574;28;20539;-57
2023/06/12 01:45:20;;;;;;;14.05;9.88;;;;;;;;;;5010822;28;20042;-58
2023/06/12 01:47:46;;;;;;;13.45;10.00;;;;;;;;;;5010745;28;20041;-57
2023/06/12 01:50:16;;;;;;;18.13;10.45;;;;;;;;;;5023917;28;20046;-57
2023/06/12 01:52:42;;;;;;;15.30;9.90;;;;;;;;;;5026164;28;20045;-58
2023/06/12 01:55:08;;;;;;;18.02;10.50;;;;;;;;;;5022928;28;20056;-57
2023/06/12 01:57:38;;;;;;;13.43;9.30;;;;;;;;;;5020453;28;20058;-58
2023/06/12 02:00:05;;;;;;;15.82;10.13;;;;;;;;;;5025490;28;20053;-58
2023/06/12 02:02:46;;;;;;;16.80;9.68;;;;;;;;;;5023979;28;20067;-58
2023/06/12 02:05:16;;;;;;;13.68;9.85;;;;;;;;;;5016937;28;20061;-58
2023/06/12 02:07:42;;;;;;;16.95;9.85;;;;;;;;;;5018307;28;20061;-58
2023/06/12 02:10:08;;;;;;;16.77;10.25;;;;;;;;;;5022016;28;20053;-58
2023/06/12 02:12:35;;;;;;;17.15;10.68;;;;;;;;;;5014819;28;20049;-59
2023/06/12 02:15:02;;;;;;;14.63;10.70;;;;;;;;;;5020361;28;20046;-58
2023/06/12 02:17:29;;;;;;;16.75;10.73;;;;;;;;;;5012300;28;20050;-57
2023/06/12 02:19:56;;;;;;;17.65;10.73;;;;;;;;;;5024001;28;20040;-57
2023/06/12 02:22:22;;;;;;;17.98;11.20;;;;;;;;;;5025328;28;20060;-57
2023/06/12 02:24:50;;;;;;;17.20;11.00;;;;;;;;;;5052744;28;20050;-58
2023/06/12 02:27:16;;;;;;;16.45;10.90;;;;;;;;;;5021689;28;20030;-58
2023/06/12 02:29:42;;;;;;;26.55;10.30;;;;;;;;;;5025041;28;20064;-57
2023/06/12 02:32:09;;;;;;;16.15;11.02;;;;;;;;;;5023725;28;20045;-57
2023/06/12 02:34:36;;;;;;;16.45;10.80;;;;;;;;;;5020567;28;20125;-57
2023/06/12 02:37:04;;;;;;;16.63;10.65;;;;;;;;;;5017904;28;20045;-58
2023/06/12 02:39:30;;;;;;;18.35;11.38;;;;;;;;;;5008145;28;20049;-59
2023/06/12 02:42:00;;;;;;;15.73;10.77;;;;;;;;;;5006308;28;20412;-58
2023/06/12 02:44:28;;;;;;;19.25;11.10;;;;;;;;;;5009335;28;20062;-58
2023/06/12 02:46:57;;;;;;;16.00;10.88;;;;;;;;;;5028139;28;20037;-57
2023/06/12 02:49:28;;;;;;;19.13;10.95;;;;;;;;;;5024341;28;20048;-56
2023/06/12 02:51:54;;;;;;;15.70;10.65;;;;;;;;;;5023904;28;20109;-57
2023/06/12 02:54:22;;;;;;;17.42;11.90;;;;;;;;;;5052612;28;20034;-57
2023/06/12 02:56:49;;;;;;;15.13;10.93;;;;;;;;;;5055556;28;20408;-57
2023/06/12 02:59:21;;;;;;;18.73;11.60;;;;;;;;;;5018811;28;20045;-57
2023/06/12 03:01:48;;;;;;;17.27;11.63;;;;;;;;;;5022693;28;20076;-57
2023/06/12 03:04:27;;;;;;;16.83;11.40;;;;;;;;;;5033210;28;20045;-57
2023/06/12 03:06:53;;;;;;;18.90;11.07;;;;;;;;;;5024487;28;20045;-57
2023/06/12 03:09:21;;;;;;;17.48;12.27;;;;;;;;;;5017162;28;20419;-57
2023/06/12 03:11:48;;;;;;;17.50;11.68;;;;;;;;;;5011829;28;20034;-57
2023/06/12 03:14:14;;;;;;;18.23;11.60;;;;;;;;;;5013789;28;20052;-57
2023/06/12 03:16:40;;;;;;;20.02;11.02;;;;;;;;;;5024132;28;20057;-57
2023/06/12 03:19:07;;;;;;;18.98;11.55;;;;;;;;;;5023432;28;20557;-58
2023/06/12 03:21:33;;;;;;;19.15;11.85;;;;;;;;;;5021430;28;20049;-57
2023/06/12 03:24:00;;;;;;;18.23;11.82;;;;;;;;;;5020714;28;20034;-58
2023/06/12 03:26:27;;;;;;;18.58;11.85;;;;;;;;;;5022720;28;20030;-57
2023/06/12 03:28:53;;;;;;;22.50;12.65;;;;;;;;;;5019619;28;20042;-57
2023/06/12 03:31:20;;;;;;;18.15;11.98;;;;;;;;;;5013047;28;20040;-57
2023/06/12 03:33:46;;;;;;;20.20;12.30;;;;;;;;;;5014802;28;20042;-57
2023/06/12 03:36:16;;;;;;;21.88;12.55;;;;;;;;;;5022587;28;20411;-57
2023/06/12 03:38:43;;;;;;;20.67;11.95;;;;;;;;;;5022433;28;20044;-57
2023/06/12 03:41:10;;;;;;;20.77;12.48;;;;;;;;;;5021533;28;20033;-57
2023/06/12 03:43:37;;;;;;;17.70;11.98;;;;;;;;;;5005356;28;20038;-57
2023/06/12 03:46:05;;;;;;;22.40;12.05;;;;;;;;;;5010622;28;20415;-57
2023/06/12 03:48:31;;;;;;;19.17;11.93;;;;;;;;;;5015425;28;20030;-57
2023/06/12 03:50:57;;;;;;;20.25;13.73;;;;;;;;;;5020248;28;20057;-57
2023/06/12 03:53:23;;;;;;;22.23;12.18;;;;;;;;;;5019090;28;20036;-57
2023/06/12 03:55:49;;;;;;;18.00;11.70;;;;;;;;;;5021566;28;20507;-58
2023/06/12 03:58:16;;;;;;;22.73;12.13;;;;;;;;;;5023396;28;20044;-58
2023/06/12 04:00:47;;;;;;;18.15;11.18;;;;;;;;;;5021733;28;20049;-57
2023/06/12 04:03:17;;;;;;;18.90;11.80;;;;;;;;;;5034812;28;20037;-57
2023/06/12 04:05:45;;;;;;;21.13;12.13;;;;;;;;;;5015656;28;20045;-57
2023/06/12 04:08:11;;;;;;;19.95;12.35;;;;;;;;;;5021380;28;20057;-57
2023/06/12 04:10:38;;;;;;;21.08;12.27;;;;;;;;;;5014900;28;20053;-58
2023/06/12 04:13:05;;;;;;;22.48;12.80;;;;;;;;;;5008791;28;20038;-58
2023/06/12 04:15:32;;;;;;;22.77;12.98;;;;;;;;;;5016532;28;20507;-58
2023/06/12 04:17:58;;;;;;;19.92;12.10;;;;;;;;;;5022840;28;20034;-58
2023/06/12 04:20:26;;;;;;;21.42;12.35;;;;;;;;;;5020677;28;20052;-58
2023/06/12 04:22:56;;;;;;;19.55;12.73;;;;;;;;;;5034967;28;20050;-58
2023/06/12 04:25:26;;;;;;;26.77;13.25;;;;;;;;;;5021242;28;20947;-58
2023/06/12 04:27:52;;;;;;;22.63;12.68;;;;;;;;;;5022298;28;20474;-59
2023/06/12 04:30:21;;;;;;;30.33;15.35;;;;;;;;;;5019446;28;20045;-59
2023/06/12 04:32:48;;;;;;;23.50;13.18;;;;;;;;;;5029823;28;20044;-59
2023/06/12 04:35:16;;;;;;;21.88;12.55;;;;;;;;;;5022501;28;20037;-58
2023/06/12 04:37:43;;;;;;;21.95;13.23;;;;;;;;;;5022161;28;20041;-58
2023/06/12 04:40:11;;;;;;;24.67;12.30;;;;;;;;;;5018710;28;20042;-58
2023/06/12 04:42:38;;;;;;;20.77;12.43;;;;;;;;;;5026996;28;20675;-59
2023/06/12 04:45:04;;;;;;;20.60;12.75;;;;;;;;;;5010905;28;20395;-58
2023/06/12 04:47:31;;;;;;;19.70;12.35;;;;;;;;;;5025116;28;20033;-59
2023/06/12 04:49:57;;;;;;;19.30;12.75;;;;;;;;;;5019671;28;20044;-59
2023/06/12 04:52:24;;;;;;;21.67;13.70;;;;;;;;;;5011858;28;20046;-59
2023/06/12 04:54:52;;;;;;;19.77;12.20;;;;;;;;;;5013186;28;20053;-59
2023/06/12 04:57:19;;;;;;;20.15;12.73;;;;;;;;;;5020524;28;20515;-58
2023/06/12 04:59:45;;;;;;;21.42;13.48;;;;;;;;;;5021279;28;20044;-58
2023/06/12 05:02:18;;;;;;;20.42;12.48;;;;;;;;;;5016821;28;20093;-58
2023/06/12 05:04:44;;;;;;;23.95;13.07;;;;;;;;;;5053967;28;20044;-58
2023/06/12 05:07:16;;;;;;;25.33;12.82;;;;;;;;;;5022146;28;20054;-59
2023/06/12 05:09:46;;;;;;;23.90;12.25;;;;;;;;;;5018870;28;20053;-59
2023/06/12 05:12:12;;;;;;;20.80;12.65;;;;;;;;;;5010709;28;20038;-59
2023/06/12 05:14:41;;;;;;;20.20;12.75;;;;;;;;;;5003696;28;20431;-59
2023/06/12 05:17:07;;;;;;;18.70;12.93;;;;;;;;;;5007689;28;20038;-59
2023/06/12 05:22:29;;;;;;;27.23;13.98;;;;;;;;;;3337815;26;20046;-73
2023/06/12 05:25:00;;;;;;;20.25;13.18;;;;;;;;;;5012755;28;20046;-73
2023/06/12 05:27:27;;;;;;;21.52;13.10;;;;;;;;;;4987491;28;20041;-75
2023/06/12 05:29:53;;;;;;;20.35;13.10;;;;;;;;;;5009491;28;20121;-74
2023/06/12 05:32:19;;;;;;;22.20;12.93;;;;;;;;;;4982685;28;20034;-72
2023/06/12 05:34:50;;;;;;;22.08;13.68;;;;;;;;;;4964318;28;20059;-71
2023/06/12 05:37:17;;;;;;;21.23;14.02;;;;;;;;;;4966689;28;20038;-72
2023/06/12 05:39:43;;;;;;;21.98;13.40;;;;;;;;;;4983348;28;20037;-72
2023/06/12 05:42:12;;;;;;;21.80;13.73;;;;;;;;;;4970571;28;20034;-71
2023/06/12 05:44:39;;;;;;;23.20;13.63;;;;;;;;;;4976550;28;20128;-72
2023/06/12 05:47:09;;;;;;;21.63;14.50;;;;;;;;;;5012781;28;20042;-71
2023/06/12 05:49:40;;;;;;;25.50;14.15;;;;;;;;;;4986565;28;20049;-70
2023/06/12 05:52:11;;;;;;;22.95;13.95;;;;;;;;;;4972861;28;20041;-73
2023/06/12 05:54:45;;;;;;;22.27;14.20;;;;;;;;;;4996152;28;20050;-72
2023/06/12 05:57:14;;;;;;;25.23;13.60;;;;;;;;;;4974178;28;20034;-72
2023/06/12 05:59:43;;;;;;;27.00;14.25;;;;;;;;;;5002673;28;20037;-74
2023/06/12 06:02:10;;;;;;;24.48;14.23;;;;;;;;;;5003167;28;20493;-74
2023/06/12 06:04:41;;;;;;;24.63;14.30;;;;;;;;;;4995617;28;20046;-72
2023/06/12 06:07:11;;;;;;;31.77;14.38;;;;;;;;;;5009542;28;20046;-71
2023/06/12 06:09:45;;;;;;;23.92;14.95;;;;;;;;;;4994839;28;20049;-72
2023/06/12 06:12:14;;;;;;;23.08;14.80;;;;;;;;;;4990643;28;20030;-73
2023/06/12 06:14:41;;;;;;;24.00;13.77;;;;;;;;;;4983865;28;20037;-72
2023/06/12 06:17:07;;;;;;;28.00;14.13;;;;;;;;;;4992605;28;20041;-73
2023/06/12 06:19:36;;;;;;;25.88;14.57;;;;;;;;;;4991587;28;20041;-71
2023/06/12 06:22:06;;;;;;;23.05;13.77;;;;;;;;;;4989124;28;20038;-73
2023/06/12 06:24:34;;;;;;;23.60;14.57;;;;;;;;;;4994730;28;20038;-71
2023/06/12 06:27:02;;;;;;;29.17;14.65;;;;;;;;;;4983464;28;20034;-71
2023/06/12 06:29:31;;;;;;;21.88;13.90;;;;;;;;;;5000806;28;20042;-74
2023/06/12 06:31:57;;;;;;;24.00;14.60;;;;;;;;;;4980804;28;20039;-72
2023/06/12 06:34:26;;;;;;;21.92;13.85;;;;;;;;;;4985313;28;20030;-72
2023/06/12 06:36:56;;;;;;;26.80;14.15;;;;;;;;;;4984149;28;20041;-72
2023/06/12 06:39:25;;;;;;;26.90;15.07;;;;;;;;;;4985627;28;20414;-71
2023/06/12 06:41:53;;;;;;;26.13;14.38;;;;;;;;;;4993977;28;20397;-72
2023/06/12 06:44:24;;;;;;;22.65;14.65;;;;;;;;;;4978419;28;20037;-71
2023/06/12 06:46:53;;;;;;;25.15;15.05;;;;;;;;;;4975222;28;20062;-72
2023/06/12 06:49:22;;;;;;;28.88;15.43;;;;;;;;;;4975797;28;20073;-72
2023/06/12 06:51:49;;;;;;;28.20;14.63;;;;;;;;;;4986153;28;20050;-71
2023/06/12 06:54:15;;;;;;;27.33;16.05;;;;;;;;;;4998351;28;20033;-72
2023/06/12 06:56:42;;;;;;;22.65;15.15;;;;;;;;;;4974611;28;20049;-73
2023/06/12 06:59:08;;;;;;;25.70;15.35;;;;;;;;;;4984763;28;20039;-73
2023/06/12 07:01:37;;;;;;;30.33;15.02;;;;;;;;;;4990831;28;20035;-73
2023/06/12 07:04:03;;;;;;;24.85;15.10;;;;;;;;;;4980272;28;20504;-71
2023/06/12 07:06:33;;;;;;;25.88;14.75;;;;;;;;;;4976353;28;20038;-72
2023/06/12 07:09:02;;;;;;;24.10;14.20;;;;;;;;;;4953697;28;20049;-71
2023/06/12 07:11:28;;;;;;;25.48;15.35;;;;;;;;;;4993989;28;20531;-72
2023/06/12 07:13:58;;;;;;;22.80;14.88;;;;;;;;;;4989694;28;20038;-72
2023/06/12 07:16:28;;;;;;;23.17;14.60;;;;;;;;;;4981132;28;20069;-73
2023/06/12 07:18:54;;;;;;;27.15;14.57;;;;;;;;;;4970499;28;20038;-72
2023/06/12 07:21:20;;;;;;;27.45;14.00;;;;;;;;;;4980120;28;20045;-73
2023/06/12 07:23:51;;;;;;;25.80;15.07;;;;;;;;;;4981289;28;20489;-73
2023/06/12 07:26:21;;;;;;;24.25;14.18;;;;;;;;;;4987633;28;20057;-71
2023/06/12 07:28:47;;;;;;;30.20;15.00;;;;;;;;;;4988894;28;20042;-72
2023/06/12 07:31:16;;;;;;;28.52;14.18;;;;;;;;;;4984114;28;20038;-71
2023/06/12 07:33:45;;;;;;;21.30;14.57;;;;;;;;;;4978148;28;20401;-72
2023/06/12 07:36:14;;;;;;;23.50;14.50;;;;;;;;;;4999863;28;20042;-72
2023/06/12 07:38:41;;;;;;;27.52;13.98;;;;;;;;;;5000488;28;20041;-73
2023/06/12 07:41:10;;;;;;;24.00;14.15;;;;;;;;;;4996102;28;20113;-72
2023/06/12 07:43:36;;;;;;;23.85;13.05;;;;;;;;;;4981325;28;20030;-72
2023/06/12 07:46:06;;;;;;;24.30;14.38;;;;;;;;;;4975334;28;20042;-72
2023/06/12 07:48:32;;;;;;;25.48;14.80;;;;;;;;;;4974418;28;20050;-71
2023/06/12 07:50:59;;;;;;;23.23;13.68;;;;;;;;;;4983859;28;20038;-71
2023/06/12 07:53:25;;;;;;;22.08;13.90;;;;;;;;;;4984472;28;20030;-72
2023/06/12 07:55:52;;;;;;;24.17;13.43;;;;;;;;;;5003017;28;20038;-72
2023/06/12 07:58:22;;;;;;;25.20;14.20;;;;;;;;;;4978935;28;20401;-71
2023/06/12 08:00:54;;;;;;;25.05;14.02;;;;;;;;;;4995601;28;20033;-72
2023/06/12 08:03:26;;;;;;;23.70;13.82;;;;;;;;;;4999007;28;20037;-71
2023/06/12 08:05:54;;;;;;;20.08;13.25;;;;;;;;;;4995886;28;20034;-70
2023/06/12 08:08:22;;;;;;;21.08;13.63;;;;;;;;;;5009953;28;20026;-71
2023/06/12 08:10:48;;;;;;;25.55;13.52;;;;;;;;;;4959683;28;20527;-70
2023/06/12 08:13:15;;;;;;;21.67;12.75;;;;;;;;;;4980242;28;20037;-73
2023/06/12 08:15:42;;;;;;;21.45;13.20;;;;;;;;;;4965472;28;20050;-73
2023/06/12 08:18:10;;;;;;;24.83;13.37;;;;;;;;;;4977628;28;20049;-73
2023/06/12 08:20:37;;;;;;;24.42;11.98;;;;;;;;;;4988401;28;20065;-72
2023/06/12 08:23:06;;;;;;;22.38;12.23;;;;;;;;;;4982812;28;20370;-73
2023/06/12 08:25:36;;;;;;;21.48;13.13;;;;;;;;;;4991092;28;21025;-72
2023/06/12 08:28:02;;;;;;;20.15;12.52;;;;;;;;;;4978686;28;20520;-72
2023/06/12 08:30:29;;;;;;;18.95;11.90;;;;;;;;;;4972048;28;20053;-73
2023/06/12 08:32:55;;;;;;;25.58;12.88;;;;;;;;;;4982113;28;20045;-72
2023/06/12 08:35:22;;;;;;;21.27;12.45;;;;;;;;;;4965421;28;20042;-74
2023/06/12 08:37:48;;;;;;;18.73;11.30;;;;;;;;;;4998469;28;20053;-74
2023/06/12 08:40:15;;;;;;;17.17;11.75;;;;;;;;;;4988044;28;20045;-72
2023/06/12 08:42:50;;;;;;;18.63;10.90;;;;;;;;;;4993314;28;20053;-72
2023/06/12 08:45:22;;;;;;;19.33;10.60;;;;;;;;;;4986839;28;20038;-73
2023/06/12 08:47:49;;;;;;;15.68;10.70;;;;;;;;;;4995926;28;20038;-73
2023/06/12 08:50:19;;;;;;;20.45;11.23;;;;;;;;;;4973465;28;20057;-72
2023/06/12 08:52:47;;;;;;;19.92;11.55;;;;;;;;;;4990668;28;20035;-71
2023/06/12 08:55:16;;;;;;;18.50;10.63;;;;;;;;;;4996394;28;20034;-71
2023/06/12 08:57:43;;;;;;;16.13;10.50;;;;;;;;;;5001513;28;20045;-71
2023/06/12 09:00:13;;;;;;;18.45;11.25;;;;;;;;;;5009508;28;20037;-73
2023/06/12 09:02:47;;;;;;;22.15;11.27;;;;;;;;;;5000105;28;20042;-71
2023/06/12 09:05:19;;;;;;;16.00;11.38;;;;;;;;;;4974740;28;20038;-72
2023/06/12 09:07:50;;;;;;;21.60;11.90;;;;;;;;;;4998285;28;20036;-70
2023/06/12 09:10:18;;;;;;;16.30;11.65;;;;;;;;;;5001102;28;20034;-72
2023/06/12 09:12:45;;;;;;;22.17;12.07;;;;;;;;;;4998194;28;20041;-71
2023/06/12 09:15:18;;;;;;;19.60;11.82;;;;;;;;;;4974070;28;20042;-72
2023/06/12 09:17:52;;;;;;;16.98;10.98;;;;;;;;;;4996369;28;20038;-72
2023/06/12 09:20:30;;;;;;;18.15;10.90;;;;;;;;;;4992367;28;20038;-72
2023/06/12 09:22:58;;;;;;;17.58;11.52;;;;;;;;;;4998128;28;20050;-73
2023/06/12 09:25:46;;;;;;;16.45;11.82;;;;;;;;;;4985730;28;20038;-73
2023/06/12 09:28:21;;;;;;;16.25;11.15;;;;;;;;;;5000670;28;20045;-72
2023/06/12 09:30:55;;;;;;;18.23;11.65;;;;;;;;;;4980514;28;20050;-74
2023/06/12 09:33:30;;;;;;;18.88;11.02;;;;;;;;;;4985418;28;20038;-72
2023/06/12 09:35:58;;;;;;;20.60;11.35;;;;;;;;;;4994427;28;20053;-72
2023/06/12 09:38:34;;;;;;;17.35;11.30;;;;;;;;;;4997349;28;20029;-73
2023/06/12 09:41:03;;;;;;;18.05;11.52;;;;;;;;;;4980624;28;20057;-72
2023/06/12 09:43:30;;;;;;;;;;;;;;;;;;4994695;28;20030;-72
2023/06/12 09:45:59;;;;;;;19.23;13.57;;;;;;;;;;4999206;28;19929;-72
2023/06/12 09:48:33;;;;;;;20.55;11.52;;;;;;;;;;4966730;28;20397;-73
2023/06/12 09:51:04;;;;;;;14.90;10.80;;;;;;;;;;4993901;28;20029;-73
2023/06/12 09:53:32;;;;;;;18.95;11.60;;;;;;;;;;4997581;28;20038;-72
2023/06/12 09:55:58;;;;;;;18.55;11.00;;;;;;;;;;5001088;28;20382;-72
2023/06/12 09:58:26;;;;;;;18.20;11.07;;;;;;;;;;5004903;28;20034;-69
2023/06/12 10:00:55;;;;;;;15.38;10.93;;;;;;;;;;4971516;28;20034;-74
2023/06/12 10:03:26;;;;;;;21.20;11.82;;;;;;;;;;4978738;28;20033;-72
2023/06/12 10:05:53;;;;;;;18.10;11.13;;;;;;;;;;5000767;28;20046;-72
2023/06/12 10:08:19;;;;;;;17.23;11.60;;;;;;;;;;4979800;28;20038;-73
2023/06/12 10:10:48;;;;;;;16.10;11.05;;;;;;;;;;4982117;28;20049;-72
2023/06/12 10:13:16;;;;;;;17.55;11.75;;;;;;;;;;4989198;28;20034;-75
2023/06/12 10:15:44;;;;;;;18.55;11.63;;;;;;;;;;4979782;28;20046;-74
2023/06/12 10:18:11;;;;;;;17.92;11.40;;;;;;;;;;4972834;28;20042;-72
2023/06/12 10:20:41;;;;;;;19.33;10.75;;;;;;;;;;4995389;28;20034;-72
2023/06/12 10:23:08;;;;;;;14.15;10.30;;;;;;;;;;4985698;28;20045;-74
2023/06/12 10:25:35;;;;;;;17.33;10.40;;;;;;;;;;4973147;28;20038;-73
2023/06/12 10:28:02;;;;;;;15.00;10.80;;;;;;;;;;4974232;28;20042;-73
2023/06/12 10:30:31;;;;;;;21.10;11.02;;;;;;;;;;4977285;28;20045;-72
2023/06/12 10:33:08;;;;;;;13.55;10.65;;;;;;;;;;4992088;28;20030;-72
2023/06/12 10:35:34;;;;;;;15.10;10.77;;;;;;;;;;4991849;28;20038;-72
2023/06/12 10:38:02;;;;;;;16.95;11.10;;;;;;;;;;4994081;28;20042;-72
2023/06/12 10:40:29;;;;;;;15.25;10.60;;;;;;;;;;5009756;28;20409;-72
2023/06/12 10:43:02;;;;;;;15.00;10.93;;;;;;;;;;4991948;28;20038;-72
2023/06/12 10:45:35;;;;;;;17.25;10.80;;;;;;;;;;4989724;28;20053;-72
2023/06/12 10:48:08;;;;;;;15.18;10.55;;;;;;;;;;5001989;28;20489;-72
2023/06/12 10:50:40;;;;;;;19.17;10.52;;;;;;;;;;4968209;28;20054;-72
2023/06/12 10:53:14;;;;;;;19.10;10.65;;;;;;;;;;5001860;28;20034;-70
2023/06/12 10:55:42;;;;;;;15.75;10.75;;;;;;;;;;4973982;28;20042;-71
2023/06/12 10:58:13;;;;;;;16.40;10.00;;;;;;;;;;4982260;28;20048;-70
2023/06/12 11:00:43;;;;;;;19.63;10.35;;;;;;;;;;4984997;28;20409;-72
2023/06/12 11:03:29;;;;;;;13.07;10.07;;;;;;;;;;5012706;28;20520;-71
2023/06/12 11:06:01;;;;;;;14.50;9.95;;;;;;;;;;4998176;28;20046;-71
2023/06/12 11:08:28;;;;;;;15.60;9.90;;;;;;;;;;4999527;28;20394;-72
2023/06/12 11:10:54;;;;;;;14.40;9.73;;;;;;;;;;4999057;28;20057;-71
2023/06/12 11:13:24;;;;;;;;;;;;;;;;;;5003812;28;20045;-72
2023/06/12 11:15:51;;;;;;;11.90;9.57;;;;;;;;;;5000747;28;19921;-71
2023/06/12 11:18:18;;;;;;;12.43;10.10;;;;;;;;;;4983029;28;20705;-72
2023/06/12 11:20:54;;;;;;;16.90;10.73;;;;;;;;;;4975754;28;20034;-71
2023/06/12 11:23:25;;;;;;;15.07;10.10;;;;;;;;;;5011395;28;20031;-70
2023/06/12 11:25:53;;;;;;;16.38;9.93;;;;;;;;;;4987693;28;20038;-70
2023/06/12 11:28:23;;;;;;;16.67;10.68;;;;;;;;;;4998724;28;20060;-71
2023/06/12 11:30:51;;;;;;;14.38;10.07;;;;;;;;;;4986719;28;20042;-70
2023/06/12 11:33:21;;;;;;;16.00;10.45;;;;;;;;;;4967021;28;20038;-71
2023/06/12 11:35:52;;;;;;;16.13;9.90;;;;;;;;;;4996471;28;20049;-72
2023/06/12 11:38:21;;;;;;;15.20;10.30;;;;;;;;;;4991776;28;20408;-75
2023/06/12 11:40:51;;;;;;;19.00;10.13;;;;;;;;;;4982646;28;20508;-71
2023/06/12 11:43:19;;;;;;;17.63;10.43;;;;;;;;;;5000478;28;20041;-71
2023/06/12 11:45:49;;;;;;;16.08;10.80;;;;;;;;;;4980009;28;20034;-71
2023/06/12 11:48:18;;;;;;;17.60;10.63;;;;;;;;;;4979007;28;20061;-71
2023/06/12 11:50:48;;;;;;;17.80;10.85;;;;;;;;;;5003102;28;20049;-70
2023/06/12 11:53:16;;;;;;;14.50;11.05;;;;;;;;;;5012261;28;20030;-71
2023/06/12 11:55:45;;;;;;;14.73;10.15;;;;;;;;;;4986505;28;20041;-71
2023/06/12 11:58:14;;;;;;;14.07;10.23;;;;;;;;;;4970211;28;20037;-71
2023/06/12 12:00:40;;;;;;;16.05;10.07;;;;;;;;;;4981539;28;20049;-71
2023/06/12 12:03:13;;;;;;;14.60;11.13;;;;;;;;;;4993155;28;20030;-74
2023/06/12 12:05:39;;;;;;;15.88;10.25;;;;;;;;;;4997703;28;20038;-73
2023/06/12 12:08:06;;;;;;;13.85;10.45;;;;;;;;;;4980344;28;20513;-72
2023/06/12 12:10:39;;;;;;;15.80;10.70;;;;;;;;;;4996639;28;20068;-71
2023/06/12 12:13:08;;;;;;;15.40;10.98;;;;;;;;;;5011418;28;20037;-71
2023/06/12 12:15:42;;;;;;;17.83;11.60;;;;;;;;;;4971701;28;20045;-72
2023/06/12 12:18:17;;;;;;;18.13;10.57;;;;;;;;;;4983783;28;20411;-72
2023/06/12 12:20:47;;;;;;;17.98;10.90;;;;;;;;;;4974220;28;20408;-72
2023/06/12 12:23:13;;;;;;;16.85;10.50;;;;;;;;;;4981110;28;20034;-72
2023/06/12 12:25:44;;;;;;;13.57;10.52;;;;;;;;;;4985973;28;20040;-73
2023/06/12 12:28:10;;;;;;;15.05;10.20;;;;;;;;;;4976194;28;20041;-72
2023/06/12 12:30:36;;;;;;;15.88;10.55;;;;;;;;;;5001319;28;20038;-72
2023/06/12 12:33:05;;;;;;;16.00;9.77;;;;;;;;;;4991966;28;20039;-73
2023/06/12 12:35:36;;;;;;;15.65;9.45;;;;;;;;;;4987877;28;20038;-72
2023/06/12 12:38:04;;;;;;;14.98;9.50;;;;;;;;;;4973532;28;20045;-71
2023/06/12 12:40:31;;;;;;;14.15;9.10;;;;;;;;;;4976790;28;20050;-72
2023/06/12 12:42:57;;;;;;;16.08;9.85;;;;;;;;;;4994085;28;20030;-72
2023/06/12 12:45:27;;;;;;;15.98;10.20;;;;;;;;;;4987951;28;20377;-72
2023/06/12 12:47:53;;;;;;;16.73;9.57;;;;;;;;;;4995208;28;20069;-72
2023/06/12 12:50:22;;;;;;;17.42;10.27;;;;;;;;;;4987179;28;20038;-72
2023/06/12 12:52:48;;;;;;;14.70;9.68;;;;;;;;;;4986292;28;20049;-72
2023/06/12 12:55:17;;;;;;;14.93;10.05;;;;;;;;;;4998563;28;20042;-72
2023/06/12 12:57:44;;;;;;;14.48;9.93;;;;;;;;;;5001594;28;20511;-72
2023/06/12 13:00:12;;;;;;;15.48;9.80;;;;;;;;;;4971879;28;20040;-73
2023/06/12 13:02:43;;;;;;;15.95;9.48;;;;;;;;;;4990766;28;20046;-73
2023/06/12 13:05:50;;;;;;;13.52;9.60;;;;;;;;;;4989211;28;20029;-73
2023/06/12 13:08:23;;;;;;;13.68;9.57;;;;;;;;;;5002857;22;20039;-60
2023/06/12 13:10:49;;;;;;;15.18;9.65;;;;;;;;;;4999519;28;20394;-60
2023/06/12 13:13:15;;;;;;;14.57;9.48;;;;;;;;;;5005824;28;20379;-61
2023/06/12 13:15:42;;;;;;;15.40;9.68;;;;;;;;;;5010137;28;20387;-60
2023/06/12 13:18:08;;;;;;;16.25;9.35;;;;;;;;;;5004077;28;20037;-60
2023/06/12 13:20:34;;;;;;;15.05;10.10;;;;;;;;;;5004929;28;20053;-60
2023/06/12 13:23:00;;;;;;;13.90;10.38;;;;;;;;;;5000423;28;20663;-60
2023/06/12 13:25:27;;;;;;;13.48;9.23;;;;;;;;;;5008788;28;20757;-60
2023/06/12 13:27:53;;;;;;;14.13;9.93;;;;;;;;;;4989594;28;20042;-61
2023/06/12 13:30:19;;;;;;;12.07;9.35;;;;;;;;;;4988425;28;20037;-60
2023/06/12 13:32:45;;;;;;;13.65;10.07;;;;;;;;;;5015960;28;20041;-60
2023/06/12 13:35:11;;;;;;;15.25;10.27;;;;;;;;;;5007558;28;20050;-61
2023/06/12 13:37:37;;;;;;;15.32;10.55;;;;;;;;;;5010711;28;20045;-60
2023/06/12 13:40:04;;;;;;;15.07;9.85;;;;;;;;;;5018137;28;20655;-60
2023/06/12 13:42:31;;;;;;;14.07;10.25;;;;;;;;;;5008662;28;20046;-60
2023/06/12 13:44:57;;;;;;;13.35;9.88;;;;;;;;;;5001404;28;20037;-60
2023/06/12 13:47:23;;;;;;;15.05;10.32;;;;;;;;;;4997729;28;20038;-60
2023/06/12 13:49:49;;;;;;;12.38;9.73;;;;;;;;;;5003938;28;20245;-60
2023/06/12 13:52:16;;;;;;;19.80;10.50;;;;;;;;;;5012018;28;20044;-60
2023/06/12 13:54:42;;;;;;;12.77;9.90;;;;;;;;;;5004945;28;20069;-60
2023/06/12 13:57:08;;;;;;;16.38;10.18;;;;;;;;;;5005521;28;20048;-59
2023/06/12 13:59:34;;;;;;;15.80;10.45;;;;;;;;;;5012718;28;20223;-59
2023/06/12 14:02:01;;;;;;;13.73;9.57;;;;;;;;;;5013783;28;20041;-60
2023/06/12 14:04:27;;;;;;;18.35;10.43;;;;;;;;;;5022157;28;20060;-62
2023/06/12 14:06:54;;;;;;;18.50;10.70;;;;;;;;;;5016206;28;20069;-61
2023/06/12 14:09:20;;;;;;;19.02;9.77;;;;;;;;;;5013809;28;20060;-61
2023/06/12 14:11:46;;;;;;;14.60;9.40;;;;;;;;;;5006249;28;20675;-60
2023/06/12 14:14:13;;;;;;;14.20;10.30;;;;;;;;;;4996815;28;20040;-60
2023/06/12 14:16:39;;;;;;;13.77;10.15;;;;;;;;;;5009158;28;20057;-59
2023/06/12 14:19:06;;;;;;;13.85;9.73;;;;;;;;;;5009159;28;20029;-59
2023/06/12 14:21:33;;;;;;;18.10;10.70;;;;;;;;;;5008836;28;20048;-60
2023/06/12 14:24:01;;;;;;;18.30;10.15;;;;;;;;;;5011102;28;20045;-60
2023/06/12 14:26:27;;;;;;;16.45;10.02;;;;;;;;;;5026966;28;20542;-61
2023/06/12 14:28:53;;;;;;;14.10;10.30;;;;;;;;;;5012302;28;20400;-59
2023/06/12 14:31:21;;;;;;;17.70;10.30;;;;;;;;;;4999172;28;20034;-60
2023/06/12 14:33:47;;;;;;;16.13;10.02;;;;;;;;;;5014457;28;20519;-60